Bellingham, MN (56212)

3:19 AM CST on February 06, 2016 (GMT -0600)
Ortonville Municipal-Martinson | | Change Station
CLOSE
Current Station
Airport
Location: Ortonville,
Elevation: 1099 ft
Nearby Weather Stations
Active Advisory: Blizzard Watch

Elev 1099 ft 45.31 °N, 96.42 °W | Updated 6 minutes ago

Partly Cloudy
Partly Cloudy
18 °F
Feels Like 9 °F
N
6
Wind Variable Wind from South

Today
High -- | Low -- °F
--% Chance of Precip.
Yesterday
High -- | Low -- °F
Precip. -- in
Pressure 30.08 in
Visibility 10.0 miles
Clouds Clear
Windchill 9 °F
Dew Point 16 °F
Humidity 93%
Rainfall 0.00 in
Snow Depth Not available.
7:39 AM 5:39 PM
Waning Crescent, 6% visible
METAR KVVV 060913Z AUTO 17005KT 10SM CLR M08/M09 A3008 RMK AO2
Pressure 30.08 in
Visibility 10.0 miles
Clouds Clear
Windchill 9 °F
Dew Point 16 °F
Humidity 93%
Rainfall 0.00 in
Snow Depth Not available.
7:39 AM 5:39 PM
Waning Crescent, 6% visible
METAR KVVV 060913Z AUTO 17005KT 10SM CLR M08/M09 A3008 RMK AO2

10-Day Weather Forecast

Almanac

Astronomy

Feb. 06, 2016 Rise Set
Actual Time
Civil Twilight
Nautical Twilight
Astronomical Twilight
Moon
Length of Visible Light
Length of Day
Tomorrow will be .
, % of the Moon is Illuminated

Today's Extremes

State Highs State Lows

Community

WunderPhotos

Upload Photos

1,890,933 photos uploaded!

WunderBlog® & News

Nearby

Air Quality

  Air Quality AQ Index Pollutant
Not available.

Snow Depth

Station Depth Elevation

Earthquake Activity

City Distance Mag. Time & Date
Minimum magnitude displayed is 2.5.

Coastal Water Temperatures

Place Temperature

Stations

Nearby Weather Stations

Station Location Temp. Windchill Dew Point Humidity Wind Precip. Elev Updated Type
                   

Watches & Warnings

Blizzard Watch
Issued: 3:04 AM CST Feb. 6, 2016 – National Weather Service

... Blizzard watch now in effect from Sunday afternoon through
Monday morning...

The National Weather Service in Twin Cities/Chanhassen has issued
a blizzard watch... which is in effect from Sunday afternoon
through Monday morning.

* Blizzard conditions are possible from Sunday afternoon through
Monday morning.

* Winds gusting as high as 40 to 50 mph could cause whiteout
conditions in blowing snow. Significant drifting of the snow is
likely.

* Total snow accumulations of up to 2 inches are possible.

* Travel could be very difficult or impossible... including during
the morning commute on Monday.

Precautionary/preparedness actions...

A blizzard watch means there is a potential for falling and
blowing snow with strong winds and extremely poor visibilities.
This can lead to whiteout conditions and make travel very
dangerous.